Time;durP1;ratioP1;P1;durP2;ratioP2;P2;SDS_P1;SDS_P2;PMS_P1;PMS_P2;Temp;Humidity;BMP_temperature;BMP_pressure;BME280_temperature;BME280_humidity;BME280_pressure;Samples;Min_cycle;Max_cycle;Signal;HPM_P1;HPM_P2
2022/08/26 00:02:16;;;;;;;;;3.50;2.50;;;;;22.06;60.51;101464.34;5079389;27;45492;-79
2022/08/26 00:04:41;;;;;;;;;3.00;3.00;;;;;22.01;60.99;101455.88;5079125;27;45320;-79
2022/08/26 00:07:06;;;;;;;;;3.50;2.50;;;;;21.98;59.97;101456.06;5078626;28;56906;-80
2022/08/26 00:09:32;;;;;;;;;4.50;3.00;;;;;22.01;60.07;101469.13;5078233;27;59900;-79
2022/08/26 00:11:57;;;;;;;;;3.00;3.00;;;;;22.03;59.83;101464.59;5078693;27;57288;-79
2022/08/26 00:14:24;;;;;;;;;3.00;1.75;;;;;22.03;60.24;101467.22;5079176;27;45443;-79
2022/08/26 00:16:49;;;;;;;;;2.50;2.50;;;;;21.97;60.01;101463.19;5079243;27;45353;-79
2022/08/26 00:19:17;;;;;;;;;2.50;2.50;;;;;21.96;60.34;101468.59;5078947;27;45399;-79
2022/08/26 00:21:43;;;;;;;;;4.25;3.50;;;;;21.95;60.37;101470.38;5077789;27;45275;-79
2022/08/26 00:24:08;;;;;;;;;2.50;2.50;;;;;21.95;61.08;101466.88;5078572;27;45166;-79
2022/08/26 00:26:33;;;;;;;;;2.00;2.00;;;;;21.91;61.28;101473.31;5079065;27;45275;-79
2022/08/26 00:28:59;;;;;;;;;4.25;2.50;;;;;21.91;60.36;101473.31;5077966;28;70469;-79
2022/08/26 00:31:24;;;;;;;;;5.00;3.50;;;;;21.91;60.75;101474.16;5078633;27;45526;-79
2022/08/26 00:33:50;;;;;;;;;5.75;4.00;;;;;21.90;60.42;101472.47;5078383;27;63510;-79
2022/08/26 00:36:15;;;;;;;;;4.00;3.00;;;;;21.83;60.48;101469.38;5078167;27;59926;-79
2022/08/26 00:38:41;;;;;;;;;4.00;3.00;;;;;21.81;61.53;101476.56;5078464;27;45356;-79
2022/08/26 00:41:06;;;;;;;;;5.50;5.00;;;;;21.80;61.28;101477.53;5077637;27;68211;-79
2022/08/26 00:43:34;;;;;;;;;4.25;4.00;;;;;21.75;61.22;101486.69;5077885;27;61356;-79
2022/08/26 00:46:10;;;;;;;;;4.00;4.00;;;;;21.73;60.59;101484.19;5078670;27;45522;-79
2022/08/26 00:48:36;;;;;;;;;2.50;2.50;;;;;21.75;60.61;101476.09;5077587;28;45305;-79
2022/08/26 00:51:11;;;;;;;;;6.25;5.00;;;;;21.78;61.29;101473.28;5078556;27;46294;-79
2022/08/26 00:53:41;;;;;;;;;5.00;3.00;;;;;21.77;61.93;101479.53;5077071;28;45416;-79
2022/08/26 00:56:20;;;;;;;;;2.50;2.50;;;;;21.75;61.17;101474.31;5078363;27;45481;-79
2022/08/26 00:58:46;;;;;;;;;4.00;4.00;;;;;21.74;61.37;101474.41;5076624;27;45507;-79
2022/08/26 01:01:13;;;;;;;;;4.50;4.50;;;;;21.70;62.52;101472.94;5078331;27;45358;-79
2022/08/26 01:03:39;;;;;;;;;6.50;5.00;;;;;21.65;62.53;101475.84;5077352;28;45798;-80
2022/08/26 01:06:06;;;;;;;;;5.00;4.25;;;;;21.60;62.34;101467.34;5076924;28;45343;-79
2022/08/26 01:08:32;;;;;;;;;8.50;4.75;;;;;21.58;61.88;101474.53;5077240;27;45343;-80
2022/08/26 01:10:59;;;;;;;;;5.00;5.00;;;;;21.57;61.58;101468.41;5076673;28;57448;-79
2022/08/26 01:13:24;;;;;;;;;6.50;5.00;;;;;21.58;61.61;101472.75;5076961;27;45516;-79
2022/08/26 01:15:52;;;;;;;;;5.75;5.75;;;;;21.57;62.57;101475.50;5076229;27;69051;-79
2022/08/26 01:18:18;;;;;;;;;5.00;5.00;;;;;21.56;62.22;101479.09;5077195;28;45323;-79
2022/08/26 01:20:52;;;;;;;;;6.00;4.25;;;;;21.56;62.07;101473.78;5076383;28;45302;-79
2022/08/26 01:23:18;;;;;;;;;9.00;8.00;;;;;21.58;61.58;101472.75;5076896;27;45271;-79
2022/08/26 01:25:50;;;;;;;;;7.00;4.75;;;;;21.60;61.53;101476.16;5077009;27;45414;-79
2022/08/26 01:28:20;;;;;;;;;6.50;6.50;;;;;21.61;62.13;101474.34;5077082;28;45374;-78
2022/08/26 01:30:46;;;;;;;;;7.00;5.00;;;;;21.62;62.00;101481.38;5076503;28;45470;-79
2022/08/26 01:33:21;;;;;;;;;7.00;7.00;;;;;21.64;61.94;101477.66;5077764;27;45320;-79
2022/08/26 01:35:46;;;;;;;;;8.00;7.25;;;;;21.59;62.87;101479.75;5076287;27;45465;-79
2022/08/26 01:38:12;;;;;;;;;8.00;7.50;;;;;21.57;62.41;101483.44;5077261;28;61114;-79
2022/08/26 01:40:41;;;;;;;;;9.75;8.00;;;;;21.55;62.71;101482.69;5076290;28;46220;-79
2022/08/26 01:43:07;;;;;;;;;12.75;9.00;;;;;21.55;62.17;101488.00;5077725;27;45812;-79
2022/08/26 01:45:33;;;;;;;;;8.25;7.75;;;;;21.52;62.17;101483.72;5076753;27;45342;-79
2022/08/26 01:48:02;;;;;;;;;8.75;7.00;;;;;21.49;62.26;101476.00;5076532;27;45297;-79
2022/08/26 01:50:31;;;;;;;;;8.25;8.00;;;;;21.49;62.04;101477.78;5075934;28;47412;-79
2022/08/26 01:52:59;;;;;;;;;11.00;9.25;;;;;21.48;62.30;101481.38;5076552;28;45462;-79
2022/08/26 01:55:25;;;;;;;;;8.25;6.00;;;;;21.46;62.36;101486.78;5076340;27;45334;-79
2022/08/26 01:57:54;;;;;;;;;11.75;10.00;;;;;21.41;63.02;101486.16;5077524;27;45624;-79
2022/08/26 02:00:20;;;;;;;;;10.75;9.00;;;;;21.38;62.40;101486.38;5076199;27;46724;-79
2022/08/26 02:02:47;;;;;;;;;11.25;9.00;;;;;21.30;62.75;101478.91;5077472;27;45727;-79
2022/08/26 02:05:19;;;;;;;;;11.25;10.00;;;;;21.27;63.64;101476.47;5075911;28;45442;-79
2022/08/26 02:07:45;;;;;;;;;10.00;9.00;;;;;21.22;63.71;101482.03;5076045;27;45540;-79
2022/08/26 02:10:11;;;;;;;;;11.00;9.00;;;;;21.21;63.51;101490.94;5076124;28;45756;-79
2022/08/26 02:12:37;;;;;;;;;8.25;8.25;;;;;21.20;63.82;101486.56;5075985;27;45893;-79
2022/08/26 02:15:05;;;;;;;;;11.25;10.00;;;;;21.21;63.68;101490.06;5076217;28;45722;-79
2022/08/26 02:17:41;;;;;;;;;13.00;12.50;;;;;21.20;63.58;101494.50;5076087;28;45413;-79
2022/08/26 02:20:07;;;;;;;;;10.25;10.25;;;;;21.22;63.59;101489.13;5075174;27;45521;-79
2022/08/26 02:22:33;;;;;;;;;12.00;10.00;;;;;21.21;63.75;101492.69;5077092;27;45355;-79
2022/08/26 02:25:05;;;;;;;;;12.75;12.75;;;;;21.20;63.54;101480.44;5076347;27;65048;-79
2022/08/26 02:27:33;;;;;;;;;9.75;8.25;;;;;21.20;63.44;101485.72;5075939;27;45460;-79
2022/08/26 02:30:09;;;;;;;;;15.75;14.50;;;;;21.17;63.79;101491.19;5076813;27;45486;-79
2022/08/26 02:32:34;;;;;;;;;10.75;8.75;;;;;21.13;64.08;101492.34;5055063;28;45921;-78
2022/08/26 02:35:00;;;;;;;;;14.50;10.25;;;;;21.12;63.85;101490.63;5057948;28;68337;-79
2022/08/26 02:37:28;;;;;;;;;13.00;10.00;;;;;21.12;64.31;101486.19;5076253;28;61623;-79
2022/08/26 02:39:54;;;;;;;;;8.75;7.00;;;;;21.12;63.97;101491.50;5075249;27;48173;-79
2022/08/26 02:42:19;;;;;;;;;15.00;11.00;;;;;21.11;64.07;101491.59;5076809;27;45359;-79
2022/08/26 02:44:44;;;;;;;;;13.25;11.75;;;;;21.08;64.03;101495.28;5075577;28;45401;-79
2022/08/26 02:47:12;;;;;;;;;13.00;13.00;;;;;21.06;64.04;101495.38;5076719;27;46627;-79
2022/08/26 02:49:39;;;;;;;;;9.75;9.25;;;;;21.07;63.82;101491.75;5075085;28;46719;-79
2022/08/26 02:52:04;;;;;;;;;13.50;13.50;;;;;21.07;65.06;101493.56;5075369;27;45917;-79
2022/08/26 02:54:29;;;;;;;;;14.75;12.25;;;;;21.05;64.16;101493.66;5076562;28;45714;-79
2022/08/26 02:56:55;;;;;;;;;14.75;12.25;;;;;21.04;63.61;101484.03;5075854;27;63517;-79
2022/08/26 02:59:20;;;;;;;;;14.25;11.50;;;;;21.08;64.67;101496.13;5075584;28;66093;-79
2022/08/26 03:01:48;;;;;;;;;11.25;11.00;;;;;21.07;64.04;101486.47;5076080;27;55287;-79
2022/08/26 03:04:13;;;;;;;;;12.75;11.25;;;;;21.06;63.92;101492.72;5076255;27;45312;-79
2022/08/26 03:06:38;;;;;;;;;18.00;13.00;;;;;21.01;63.86;101489.50;5075478;28;68323;-79
2022/08/26 03:09:04;;;;;;;;;13.25;10.75;;;;;20.96;64.59;101480.97;5075194;27;73320;-79
2022/08/26 03:11:30;;;;;;;;;18.75;13.00;;;;;20.97;64.26;101488.00;5075237;27;45453;-79
2022/08/26 03:13:56;;;;;;;;;12.50;12.00;;;;;20.96;63.88;101486.28;5075330;27;45515;-79
2022/08/26 03:16:21;;;;;;;;;13.00;11.00;;;;;20.96;64.42;101488.91;5075196;27;45441;-79
2022/08/26 03:18:47;;;;;;;;;12.25;11.00;;;;;21.00;64.55;101494.88;5073397;27;73533;-79
2022/08/26 03:21:15;;;;;;;;;17.50;13.50;;;;;21.02;64.25;101490.34;5074655;28;72967;-79
2022/08/26 03:23:41;;;;;;;;;11.75;10.75;;;;;20.99;64.58;101494.03;5076515;28;45362;-78
2022/08/26 03:26:08;;;;;;;;;13.00;13.00;;;;;20.97;65.41;101488.00;5076435;27;45495;-79
2022/08/26 03:28:33;;;;;;;;;14.50;13.00;;;;;21.00;64.13;101484.28;5075993;27;45386;-79
2022/08/26 03:30:59;;;;;;;;;14.50;12.50;;;;;21.00;64.50;101490.44;5075594;28;45403;-79
2022/08/26 03:33:24;;;;;;;;;14.75;11.00;;;;;21.01;64.85;101497.44;5075409;28;60780;-79
2022/08/26 03:35:51;;;;;;;;;17.00;13.00;;;;;20.98;64.98;101487.03;5074582;28;45372;-78
2022/08/26 03:38:18;;;;;;;;;17.00;14.75;;;;;20.99;64.92;101483.44;5075967;27;45402;-79
2022/08/26 03:40:43;;;;;;;;;14.25;14.00;;;;;20.97;64.25;101490.63;5075831;28;45356;-79
2022/08/26 03:43:09;;;;;;;;;20.50;15.25;;;;;20.94;64.68;101488.16;5075938;28;45297;-79
2022/08/26 03:45:35;;;;;;;;;14.00;13.50;;;;;20.89;64.93;101495.53;5075969;27;45238;-78
2022/08/26 03:48:01;;;;;;;;;18.50;15.75;;;;;20.86;65.44;101487.78;5075861;27;45288;-79
2022/08/26 03:50:27;;;;;;;;;14.25;13.00;;;;;20.80;64.73;101481.06;5075738;27;45214;-79
2022/08/26 03:52:53;;;;;;;;;14.50;11.50;;;;;20.80;65.30;101493.44;5075800;27;45314;-79
2022/08/26 03:55:21;;;;;;;;;22.00;16.25;;;;;20.80;65.33;101493.44;5088326;27;45245;-79
2022/08/26 03:57:46;;;;;;;;;18.25;14.25;;;;;20.78;64.62;101484.75;5096306;27;45531;-79
2022/08/26 04:00:14;;;;;;;;;16.00;13.00;;;;;20.79;65.27;101481.16;5094600;27;73067;-79
2022/08/26 04:02:42;;;;;;;;;17.00;14.00;;;;;20.79;64.98;101486.47;5096344;27;45460;-79
2022/08/26 04:05:08;;;;;;;;;15.75;14.75;;;;;20.76;64.73;101483.97;5078125;27;45390;-79
2022/08/26 04:07:34;;;;;;;;;19.75;15.50;;;;;20.74;64.86;101485.88;5095896;27;47747;-79
2022/08/26 04:09:59;;;;;;;;;22.25;18.00;;;;;20.71;65.09;101486.03;5094991;27;70608;-79
2022/08/26 04:12:24;;;;;;;;;19.00;16.25;;;;;20.69;65.48;101492.28;5077508;27;52351;-79
2022/08/26 04:14:51;;;;;;;;;18.75;12.75;;;;;20.66;64.87;101484.53;5076330;27;68426;-79
2022/08/26 04:17:19;;;;;;;;;18.50;13.50;;;;;20.67;65.33;101493.31;5077516;27;47327;-79
2022/08/26 04:19:45;;;;;;;;;21.50;16.50;;;;;20.63;65.14;101486.50;5095544;27;45353;-79
2022/08/26 04:22:10;;;;;;;;;17.25;14.75;;;;;20.64;64.91;101490.88;5094922;27;69246;-79
2022/08/26 04:24:38;;;;;;;;;19.25;18.75;;;;;20.64;64.84;101488.22;5095740;27;45560;-79
2022/08/26 04:27:04;;;;;;;;;21.00;15.00;;;;;20.61;64.51;101491.88;5077699;27;45528;-79
2022/08/26 04:29:29;;;;;;;;;17.75;16.50;;;;;20.56;65.28;101498.34;5095528;27;45314;-79
2022/08/26 04:31:55;;;;;;;;;18.25;16.75;;;;;20.49;65.54;101490.78;5095742;27;45832;-79
2022/08/26 04:34:22;;;;;;;;;19.00;16.25;;;;;20.45;65.80;101491.91;5098406;27;47139;-79
2022/08/26 04:36:48;;;;;;;;;18.25;16.00;;;;;20.43;65.41;101490.28;5080845;27;45401;-79
2022/08/26 04:39:18;;;;;;;;;21.00;16.00;;;;;20.42;65.60;101492.09;5099008;27;45527;-79
2022/08/26 04:41:45;;;;;;;;;19.00;18.00;;;;;20.42;65.34;101504.47;5099255;27;45516;-79
2022/08/26 04:44:11;;;;;;;;;18.75;15.25;;;;;20.39;65.36;101504.63;5098966;27;45440;-79
2022/08/26 04:46:36;;;;;;;;;22.50;18.75;;;;;20.36;65.90;101503.03;5099034;27;46476;-79
2022/08/26 04:49:04;;;;;;;;;16.50;16.25;;;;;20.40;65.40;101501.06;5080557;27;51001;-79
2022/08/26 04:51:32;;;;;;;;;20.50;15.50;;;;;20.41;65.23;101505.41;5099009;27;45329;-78
2022/08/26 04:53:58;;;;;;;;;19.50;17.25;;;;;20.38;65.86;101503.78;5080896;27;45520;-79
2022/08/26 04:56:31;;;;;;;;;17.00;16.25;;;;;20.36;65.81;101516.25;5099003;27;46640;-79
2022/08/26 04:58:56;;;;;;;;;16.75;14.75;;;;;20.36;66.26;101510.97;5080352;27;45440;-79
2022/08/26 05:01:22;;;;;;;;;17.25;16.50;;;;;20.38;66.16;101505.59;5080064;27;57126;-79
2022/08/26 05:03:48;;;;;;;;;17.75;14.00;;;;;20.42;65.57;101507.13;5098996;27;45321;-79
2022/08/26 05:06:14;;;;;;;;;20.00;17.25;;;;;20.44;66.10;101506.06;5098539;27;46708;-79
2022/08/26 05:08:39;;;;;;;;;14.75;14.75;;;;;20.47;66.09;101520.94;5098766;27;45640;-79
2022/08/26 05:11:06;;;;;;;;;26.00;16.75;;;;;20.52;66.24;101520.63;5098691;27;45320;-79
2022/08/26 05:13:31;;;;;;;;;24.75;16.00;;;;;20.57;65.88;101526.53;5098387;27;45532;-79
2022/08/26 05:16:01;;;;;;;;;18.75;14.50;;;;;20.62;65.92;101524.50;5098606;27;45522;-79
2022/08/26 05:18:28;;;;;;;;;18.50;16.25;;;;;20.64;65.78;101526.09;5080121;27;45679;-79
2022/08/26 05:20:54;;;;;;;;;17.00;15.75;;;;;20.64;65.44;101531.38;5080491;27;45315;-79
2022/08/26 05:23:21;;;;;;;;;23.25;17.75;;;;;20.66;66.00;101533.94;5098493;27;45216;-79
2022/08/26 05:25:48;;;;;;;;;22.50;17.00;;;;;20.64;65.23;101531.38;5098333;27;45509;-79
2022/08/26 05:28:16;;;;;;;;;19.75;16.00;;;;;20.65;65.49;101534.88;5079594;27;45840;-79
2022/08/26 05:30:41;;;;;;;;;20.00;17.50;;;;;20.65;66.08;101537.53;5098488;27;45369;-79
2022/08/26 05:33:08;;;;;;;;;19.50;18.00;;;;;20.65;66.17;101546.34;5097131;27;70453;-79
2022/08/26 05:35:34;;;;;;;;;22.50;17.50;;;;;20.64;65.99;101549.06;5097226;27;68919;-81
2022/08/26 05:38:01;;;;;;;;;21.50;18.00;;;;;20.63;65.61;101548.19;5080088;27;45963;-82
2022/08/26 05:40:27;;;;;;;;;19.25;16.25;;;;;20.63;65.47;101553.47;5079920;27;45487;-81
2022/08/26 05:42:53;;;;;;;;;21.25;16.75;;;;;20.62;65.56;101554.44;5097993;27;45491;-81
2022/08/26 05:45:19;;;;;;;;;17.25;16.75;;;;;20.61;66.26;101559.81;5079603;27;45617;-81
2022/08/26 05:47:44;;;;;;;;;16.75;16.00;;;;;20.63;65.51;101548.19;5098046;27;45391;-81
2022/08/26 05:50:10;;;;;;;;;26.25;16.00;;;;;20.71;65.34;101557.47;5079972;27;45347;-81
2022/08/26 05:52:36;;;;;;;;;21.00;19.25;;;;;20.73;65.51;101559.09;5079058;27;65561;-81
2022/08/26 05:55:02;;;;;;;;;19.00;17.50;;;;;20.78;65.30;101561.47;5097744;27;45670;-81
2022/08/26 05:57:28;;;;;;;;;21.50;18.00;;;;;20.84;64.87;101559.31;5079252;27;45319;-82
2022/08/26 05:59:54;;;;;;;;;22.00;18.75;;;;;20.87;64.78;101555.63;5079749;27;45270;-81
2022/08/26 06:02:19;;;;;;;;;22.50;18.50;;;;;20.93;65.31;101563.22;5098051;27;45443;-81
2022/08/26 06:04:44;;;;;;;;;25.50;17.50;;;;;21.00;64.56;101568.97;5097711;27;45478;-82
2022/08/26 06:07:10;;;;;;;;;21.25;18.00;;;;;21.00;65.09;101571.63;5096729;27;71484;-81
2022/08/26 06:09:36;;;;;;;;;21.25;17.25;;;;;21.02;64.63;101573.25;5096836;27;65239;-82
2022/08/26 06:12:02;;;;;;;;;17.75;16.25;;;;;21.03;64.59;101572.31;5097433;27;45483;-81
2022/08/26 06:14:27;;;;;;;;;22.00;18.00;;;;;21.04;64.57;101571.38;5097527;27;45426;-81
2022/08/26 06:16:53;;;;;;;;;18.50;16.75;;;;;21.05;64.31;101572.22;5097601;27;45478;-82
2022/08/26 06:19:20;;;;;;;;;16.50;15.25;;;;;21.07;64.29;101571.16;5097384;27;45445;-81
2022/08/26 06:21:47;;;;;;;;;21.00;15.25;;;;;21.08;64.12;101562.28;5097890;27;45507;-81
2022/08/26 06:27:00;;;;;;;;;21.50;18.00;;;;;21.19;64.69;101558.13;5097214;27;45350;-81
2022/08/26 06:29:26;;;;;;;;;21.00;19.25;;;;;21.24;64.33;101562.19;5097462;27;45329;-81
2022/08/26 06:31:52;;;;;;;;;15.75;13.75;;;;;21.27;63.36;101556.72;5097213;27;45466;-81
2022/08/26 06:34:18;;;;;;;;;18.50;15.50;;;;;21.25;63.95;101552.50;5097411;27;45439;-82
2022/08/26 06:36:44;;;;;;;;;18.25;15.25;;;;;21.26;63.08;101557.66;5078575;27;45457;-81
2022/08/26 06:39:11;;;;;;;;;19.00;16.00;;;;;21.29;63.25;101550.50;5097306;27;45295;-81
2022/08/26 06:41:37;;;;;;;;;17.25;15.00;;;;;21.32;63.28;101552.94;5078844;27;45508;-82
2022/08/26 06:44:05;;;;;;;;;17.25;15.50;;;;;21.31;63.20;101553.91;5097096;27;45657;-82
2022/08/26 06:46:31;;;;;;;;;13.75;13.00;;;;;21.27;63.26;101559.38;5097109;27;45586;-81
2022/08/26 06:48:59;;;;;;;;;20.25;14.75;;;;;21.24;63.60;101564.00;5097328;27;45418;-82
2022/08/26 06:51:27;;;;;;;;;17.50;16.50;;;;;21.23;63.56;101571.09;5079502;27;45496;-82
2022/08/26 06:53:54;;;;;;;;;17.75;14.25;;;;;21.24;63.13;101572.78;5096740;27;45453;-81
2022/08/26 06:56:23;;;;;;;;;20.75;15.25;;;;;21.27;62.99;101577.06;5061108;27;45406;-82
2022/08/26 06:58:49;;;;;;;;;15.75;14.75;;;;;21.25;62.67;101578.97;5078851;27;45434;-81
2022/08/26 07:01:17;;;;;;;;;19.25;15.00;;;;;21.22;62.97;101579.13;5096848;27;45336;-82
2022/08/26 07:03:42;;;;;;;;;17.00;14.25;;;;;21.17;62.86;101575.91;5096910;27;46501;-82
2022/08/26 07:06:09;;;;;;;;;19.25;15.75;;;;;21.17;62.62;101575.91;5096245;27;60026;-82
2022/08/26 07:08:35;;;;;;;;;15.25;15.25;;;;;21.17;62.55;101573.25;5096396;27;45376;-82
2022/08/26 07:11:08;;;;;;;;;15.25;14.25;;;;;21.17;62.88;101584.72;5096907;27;45249;-82
2022/08/26 07:13:36;;;;;;;;;19.25;16.50;;;;;21.23;63.33;101578.22;5096712;27;45658;-81
2022/08/26 07:16:04;;;;;;;;;15.25;13.25;;;;;21.32;62.91;101568.84;5096814;27;45766;-81
2022/08/26 07:18:30;;;;;;;;;17.25;14.75;;;;;21.49;62.44;101571.34;5096673;27;45316;-79
2022/08/26 07:20:56;;;;;;;;;18.50;13.25;;;;;21.67;61.53;101571.13;5078515;27;45348;-79
2022/08/26 07:23:21;;;;;;;;;18.50;14.00;;;;;21.82;61.69;101568.38;5095164;27;74318;-79
2022/08/26 07:25:47;;;;;;;;;16.00;14.25;;;;;21.96;61.68;101567.50;5096345;27;45318;-79
2022/08/26 07:28:12;;;;;;;;;18.00;15.00;;;;;22.04;61.14;101565.19;5077845;27;54601;-79
2022/08/26 07:30:39;;;;;;;;;17.75;15.75;;;;;22.11;61.08;101564.81;5095696;27;66258;-79
2022/08/26 07:33:04;;;;;;;;;19.75;15.00;;;;;22.19;60.85;101565.16;5077734;27;45316;-79
2022/08/26 07:35:29;;;;;;;;;15.75;15.75;;;;;22.27;60.69;101562.91;5095244;27;73132;-79
2022/08/26 07:37:55;;;;;;;;;17.25;15.75;;;;;22.26;60.23;101563.00;5095460;27;55736;-79
2022/08/26 07:40:20;;;;;;;;;17.50;15.00;;;;;22.18;60.20;101566.97;5078161;27;45349;-79
2022/08/26 07:42:46;;;;;;;;;19.50;18.00;;;;;22.13;60.50;101565.56;5077826;27;46305;-79
2022/08/26 07:45:11;;;;;;;;;20.00;18.25;;;;;22.08;60.27;101579.09;5077964;27;45474;-79
2022/08/26 07:47:37;;;;;;;;;16.75;15.25;;;;;22.07;60.28;101573.94;5095522;27;61319;-79
2022/08/26 07:50:03;;;;;;;;;15.00;13.25;;;;;22.12;60.69;101570.03;5095260;27;70786;-79
2022/08/26 07:52:29;;;;;;;;;18.25;14.25;;;;;22.21;59.84;101574.72;5095569;27;47633;-79
2022/08/26 07:54:56;;;;;;;;;16.00;12.75;;;;;22.29;60.23;101574.25;5077690;27;45872;-79
2022/08/26 07:57:22;;;;;;;;;14.50;11.25;;;;;22.34;59.27;101573.94;5078129;27;45299;-79
2022/08/26 07:59:48;;;;;;;;;14.25;12.00;;;;;22.39;59.83;101569.19;5096004;27;45452;-80
2022/08/26 08:02:13;;;;;;;;;13.25;11.75;;;;;22.47;59.18;101564.22;5095131;27;72949;-79
2022/08/26 08:04:38;;;;;;;;;13.50;11.25;;;;;22.51;58.83;101568.41;5095672;27;52739;-80
2022/08/26 08:07:04;;;;;;;;;13.00;10.00;;;;;22.53;58.67;101561.19;5095722;27;45479;-79
2022/08/26 08:09:29;;;;;;;;;12.25;10.50;;;;;22.60;59.28;101566.91;5098169;27;70380;-79
2022/08/26 08:11:54;;;;;;;;;12.00;11.25;;;;;22.69;58.91;101568.13;5098681;27;70826;-79
2022/08/26 08:14:20;;;;;;;;;11.50;9.75;;;;;22.81;58.30;101562.84;5099521;27;45493;-79
2022/08/26 08:16:45;;;;;;;;;12.00;10.50;;;;;22.90;58.00;101565.81;5099630;27;45395;-79
2022/08/26 08:19:11;;;;;;;;;10.50;9.75;;;;;22.96;57.83;101570.72;5081175;27;45377;-79
2022/08/26 08:21:36;;;;;;;;;15.25;13.00;;;;;23.06;57.56;101574.47;5098938;27;45361;-79
2022/08/26 08:24:02;;;;;;;;;14.00;11.50;;;;;23.13;56.75;101570.44;5098657;27;65805;-80
2022/08/26 08:26:27;;;;;;;;;11.25;9.75;;;;;23.19;56.96;101574.47;5099334;27;45415;-80
2022/08/26 08:28:54;;;;;;;;;11.00;11.00;;;;;23.32;56.47;101569.16;5099330;27;45329;-79
2022/08/26 08:31:22;;;;;;;;;12.50;11.00;;;;;23.40;56.49;101566.81;5080827;27;46491;-79
2022/08/26 08:33:47;;;;;;;;;8.50;8.50;;;;;23.41;56.27;101563.22;5099132;27;45640;-80
2022/08/26 08:36:15;;;;;;;;;14.00;12.25;;;;;23.46;56.26;101563.75;5098889;27;45183;-79
2022/08/26 08:38:41;;;;;;;;;9.75;9.50;;;;;23.50;56.04;101564.38;5099222;27;45336;-79
2022/08/26 08:41:22;;;;;;;;;12.50;9.75;;;;;23.53;56.17;101569.44;5098960;27;46616;-79
2022/08/26 08:43:48;;;;;;;;;13.00;11.25;;;;;23.60;55.73;101572.53;5080904;27;45715;-79
2022/08/26 08:46:15;;;;;;;;;11.50;9.00;;;;;23.71;55.19;101568.16;5079861;27;65924;-80
2022/08/26 08:48:43;;;;;;;;;9.25;8.00;;;;;23.76;54.95;101567.84;5099303;27;45678;-79
2022/08/26 08:51:32;;;;;;;;;9.50;8.25;;;;;23.90;55.00;101566.84;5098745;27;46005;-80
2022/08/26 08:53:58;;;;;;;;;12.00;7.50;;;;;24.02;54.15;101565.97;5080455;27;45255;-80
2022/08/26 08:56:33;;;;;;;;;7.50;7.00;;;;;24.09;53.98;101571.69;5080877;27;45440;-79
2022/08/26 08:59:14;;;;;;;;;7.25;7.25;;;;;24.13;53.37;101563.38;5099178;27;45206;-79
2022/08/26 09:02:02;;;;;;;;;9.50;8.00;;;;;24.20;53.70;101565.59;5098615;27;45396;-79
2022/08/26 09:04:36;;;;;;;;;11.75;8.50;;;;;24.28;53.28;101560.56;5097962;27;45659;-80
2022/08/26 09:07:03;;;;;;;;;9.25;8.00;;;;;24.38;53.43;101566.03;5099078;27;45396;-80
2022/08/26 09:09:54;;;;;;;;;6.25;5.25;;;;;24.39;53.17;101565.09;5080653;27;45388;-80
2022/08/26 09:12:23;;;;;;;;;6.75;6.75;;;;;24.26;53.25;101562.50;5073156;27;46131;-79
2022/08/26 09:14:49;;;;;;;;;13.75;9.25;;;;;24.18;53.47;101567.50;5080644;27;45298;-79
2022/08/26 09:17:42;;;;;;;;;11.50;10.50;;;;;24.12;53.61;101563.50;5098618;27;45369;-79
2022/08/26 09:20:27;;;;;;;;;9.75;7.75;;;;;24.11;53.95;101567.13;5079305;27;45468;-80
2022/08/26 09:22:55;;;;;;;;;11.25;10.00;;;;;24.17;54.07;101564.00;5080244;27;46664;-79
2022/08/26 09:25:20;;;;;;;;;10.75;9.00;;;;;24.22;54.00;101563.66;5080129;27;45788;-80
2022/08/26 09:27:48;;;;;;;;;11.25;10.25;;;;;24.20;53.26;101555.81;5097620;27;67947;-79
2022/08/26 09:30:22;;;;;;;;;11.25;7.50;;;;;24.24;53.31;101557.28;5098534;27;45370;-80
2022/08/26 09:33:04;;;;;;;;;8.50;8.50;;;;;24.40;53.74;101553.47;5079695;27;45465;-80
2022/08/26 09:35:35;;;;;;;;;9.50;9.00;;;;;24.63;53.49;101557.97;5097899;27;45758;-80
2022/08/26 09:38:01;;;;;;;;;8.00;7.75;;;;;24.90;52.87;101546.16;5098424;27;45396;-80
2022/08/26 09:40:34;;;;;;;;;8.00;6.75;;;;;25.15;52.02;101552.25;5080134;27;45465;-80
2022/08/26 09:43:06;;;;;;;;;9.50;9.00;;;;;25.35;51.04;101556.88;5098000;27;45617;-80
2022/08/26 09:45:31;;;;;;;;;7.25;6.75;;;;;25.49;50.19;101553.16;5098035;27;45778;-80
2022/08/26 09:47:57;;;;;;;;;9.25;6.25;;;;;25.57;50.17;101557.88;5097419;27;48540;-80
2022/08/26 09:50:25;;;;;;;;;7.75;7.75;;;;;25.60;49.89;101563.81;5079863;27;45480;-79
2022/08/26 09:53:24;;;;;;;;;7.25;6.00;;;;;25.55;50.08;101555.31;5098033;27;45616;-79
2022/08/26 09:55:53;;;;;;;;;10.25;8.50;;;;;25.54;49.98;101558.09;5097160;27;45220;-79
2022/08/26 09:58:48;;;;;;;;;8.00;6.00;;;;;25.53;50.11;101551.09;5098075;27;45689;-79
2022/08/26 10:01:27;;;;;;;;;7.00;7.00;;;;;25.60;50.52;101554.97;5066492;27;45587;-80
2022/08/26 10:04:03;;;;;;;;;9.75;8.25;;;;;25.67;50.64;101554.34;5079055;27;46213;-80
2022/08/26 10:06:28;;;;;;;;;7.75;7.75;;;;;25.75;49.56;101552.88;5062597;27;45673;-80
2022/08/26 10:08:57;;;;;;;;;10.25;8.25;;;;;25.72;49.12;101545.13;5096878;27;69610;-79
2022/08/26 10:11:47;;;;;;;;;9.75;7.75;;;;;25.64;49.22;101551.06;5079555;27;45483;-80
2022/08/26 10:14:42;;;;;;;;;9.25;9.25;;;;;25.63;49.38;101563.56;5079473;27;45354;-80
2022/08/26 10:17:20;;;;;;;;;9.00;8.50;;;;;25.70;49.03;101550.56;5078839;27;45307;-80
2022/08/26 10:19:50;;;;;;;;;9.00;7.75;;;;;25.81;48.95;101547.88;5079452;27;45405;-80
2022/08/26 10:22:43;;;;;;;;;9.75;7.75;;;;;26.01;48.65;101548.13;5097575;27;45395;-79
2022/08/26 10:25:13;;;;;;;;;8.75;8.00;;;;;26.02;48.49;101544.47;5097194;27;47819;-80
2022/08/26 10:27:47;;;;;;;;;7.75;7.00;;;;;26.04;48.26;101546.06;5079166;27;45303;-80
2022/08/26 10:30:17;;;;;;;;;7.50;6.75;;;;;26.03;48.51;101538.19;5096818;27;45288;-80
2022/08/26 10:32:56;;;;;;;;;5.00;5.00;;;;;25.97;47.78;101539.53;5096764;27;45401;-79
2022/08/26 10:35:22;;;;;;;;;5.75;5.00;;;;;26.03;47.93;101543.50;5097144;27;45250;-79
2022/08/26 10:37:53;;;;;;;;;8.25;8.00;;;;;26.05;47.23;101545.06;5079072;27;45302;-80
2022/08/26 10:40:18;;;;;;;;;8.50;7.25;;;;;26.04;47.45;101540.72;5079405;27;45384;-80
2022/08/26 10:43:02;;;;;;;;;9.25;7.50;;;;;26.00;47.38;101544.63;5097225;27;45383;-79
2022/08/26 10:45:31;;;;;;;;;6.75;5.50;;;;;25.98;46.32;101537.69;5097282;27;45529;-79
2022/08/26 10:48:05;;;;;;;;;6.75;5.25;;;;;25.96;46.21;101542.31;5078574;27;45343;-79
2022/08/26 10:50:37;;;;;;;;;6.00;6.00;;;;;25.92;46.09;101538.19;5079057;27;45382;-80
2022/08/26 10:53:05;;;;;;;;;5.25;5.00;;;;;25.90;46.01;101532.97;5078928;27;45436;-80
2022/08/26 10:55:42;;;;;;;;;5.50;5.00;;;;;25.91;45.99;101544.47;5096772;27;45400;-80
2022/08/26 10:58:17;;;;;;;;;7.50;7.00;;;;;25.85;46.03;101536.03;5078543;27;45492;-80
2022/08/26 11:03:40;;;;;;;;;6.75;6.75;;;;;25.91;46.32;101528.47;5081558;27;45544;-79
2022/08/26 11:06:17;;;;;;;;;8.25;7.25;;;;;26.00;47.01;101519.75;5078436;27;46215;-80
2022/08/26 11:08:51;;;;;;;;;7.00;6.75;;;;;26.26;46.67;101522.94;5096694;27;45416;-80
2022/08/26 11:11:38;;;;;;;;;5.75;4.25;;;;;26.56;45.23;101513.31;5078794;27;45375;-80
2022/08/26 11:14:04;;;;;;;;;6.00;5.50;;;;;26.80;44.27;101519.28;5096906;27;45449;-80
2022/08/26 11:16:37;;;;;;;;;3.75;3.75;;;;;26.94;43.85;101519.94;5096235;27;47357;-80
2022/08/26 11:19:02;;;;;;;;;4.50;4.00;;;;;27.13;42.90;101506.66;5078336;27;45425;-79
2022/08/26 11:21:45;;;;;;;;;5.00;5.00;;;;;27.38;43.17;101509.91;5096563;27;45383;-79
2022/08/26 11:24:41;;;;;;;;;5.00;5.00;;;;;27.60;41.73;101508.84;5096853;27;45311;-80
2022/08/26 11:27:24;;;;;;;;;4.25;3.50;;;;;27.84;41.63;101508.47;5096628;27;45438;-80
2022/08/26 11:30:02;;;;;;;;;7.00;5.00;;;;;28.07;41.23;101508.22;5096047;27;45241;-80